Time;durP1;ratioP1;P1;durP2;ratioP2;P2;SDS_P1;SDS_P2;PMS_P1;PMS_P2;Temp;Humidity;BMP_temperature;BMP_pressure;BME280_temperature;BME280_humidity;BME280_pressure;Samples;Min_cycle;Max_cycle;Signal;HPM_P1;HPM_P2
2021/08/12 00:01:25;;;;;;;6.55;4.93;;;;;;;;;;5049835;28;20404;-94
2021/08/12 00:03:52;;;;;;;6.33;5.37;;;;;;;;;;5048779;28;20416;-94
2021/08/12 00:06:19;;;;;;;5.50;4.85;;;;;;;;;;5053331;28;20941;-94
2021/08/12 00:08:46;;;;;;;6.38;5.22;;;;;;;;;;5056443;28;20409;-92
2021/08/12 00:11:14;;;;;;;6.53;5.10;;;;;;;;;;5053920;28;20753;-95
2021/08/12 00:13:41;;;;;;;5.68;4.95;;;;;;;;;;5064017;28;20410;-93
2021/08/12 00:16:08;;;;;;;5.93;5.20;;;;;;;;;;5055577;28;20411;-94
2021/08/12 00:18:35;;;;;;;7.57;5.28;;;;;;;;;;5058760;28;20671;-94
2021/08/12 00:21:02;;;;;;;5.35;4.80;;;;;;;;;;5055431;28;20410;-94
2021/08/12 00:23:29;;;;;;;7.68;5.05;;;;;;;;;;5052024;28;20415;-94
2021/08/12 00:25:57;;;;;;;6.40;5.10;;;;;;;;;;5056396;28;20408;-95
2021/08/12 00:28:25;;;;;;;8.13;5.30;;;;;;;;;;5033593;28;20887;-93
2021/08/12 00:30:52;;;;;;;6.68;4.95;;;;;;;;;;5051513;28;20906;-94
2021/08/12 00:33:19;;;;;;;6.35;5.05;;;;;;;;;;5051027;28;20442;-93
2021/08/12 00:35:46;;;;;;;6.03;5.18;;;;;;;;;;5049314;28;20405;-94
2021/08/12 00:38:13;;;;;;;5.50;4.90;;;;;;;;;;5053117;28;20417;-94
2021/08/12 00:40:41;;;;;;;6.28;4.95;;;;;;;;;;5052510;28;20753;-95
2021/08/12 00:43:08;;;;;;;6.57;5.38;;;;;;;;;;5049008;28;20477;-95
2021/08/12 00:45:36;;;;;;;7.40;5.30;;;;;;;;;;5063877;28;20505;-94
2021/08/12 00:48:04;;;;;;;6.32;4.95;;;;;;;;;;5055606;28;20422;-94
2021/08/12 00:50:31;;;;;;;6.60;5.28;;;;;;;;;;5056655;28;20413;-94
2021/08/12 00:52:58;;;;;;;6.55;4.97;;;;;;;;;;5055087;28;20417;-95
2021/08/12 00:55:25;;;;;;;6.90;5.20;;;;;;;;;;5064555;28;20408;-93
2021/08/12 00:57:52;;;;;;;5.95;5.35;;;;;;;;;;5062422;28;20406;-95
2021/08/12 01:00:19;;;;;;;6.78;5.40;;;;;;;;;;5049099;28;20411;-94
2021/08/12 01:02:47;;;;;;;5.63;4.95;;;;;;;;;;5042557;28;20778;-94
2021/08/12 01:05:14;;;;;;;5.93;4.93;;;;;;;;;;5057565;28;20415;-95
2021/08/12 01:07:50;;;;;;;7.43;5.47;;;;;;;;;;5054250;28;20426;-93
2021/08/12 01:10:22;;;;;;;7.57;5.43;;;;;;;;;;5054865;28;20398;-94
2021/08/12 01:12:57;;;;;;;6.72;5.10;;;;;;;;;;5060364;28;20410;-93
2021/08/12 01:15:28;;;;;;;7.28;5.30;;;;;;;;;;5046186;28;21079;-94
2021/08/12 01:18:03;;;;;;;7.43;5.82;;;;;;;;;;5049623;28;20421;-95
2021/08/12 01:20:52;;;;;;;7.15;5.40;;;;;;;;;;5037229;28;20910;-95
2021/08/12 01:23:23;;;;;;;7.05;5.50;;;;;;;;;;5054310;28;20758;-95
2021/08/12 01:25:51;;;;;;;7.03;5.40;;;;;;;;;;5052403;28;20416;-95
2021/08/12 01:28:20;;;;;;;7.65;5.30;;;;;;;;;;5038774;28;20419;-94
2021/08/12 01:30:54;;;;;;;6.43;5.40;;;;;;;;;;5045098;28;20411;-95
2021/08/12 01:33:35;;;;;;;7.13;5.50;;;;;;;;;;5048587;28;20981;-94
2021/08/12 01:36:04;;;;;;;6.07;5.20;;;;;;;;;;5028227;28;20968;-95
2021/08/12 01:38:32;;;;;;;6.43;5.68;;;;;;;;;;5049332;28;20403;-93
2021/08/12 01:41:00;;;;;;;7.30;5.88;;;;;;;;;;5047666;28;20415;-95
2021/08/12 01:43:29;;;;;;;6.78;5.22;;;;;;;;;;5048853;28;20458;-95
2021/08/12 01:45:58;;;;;;;6.45;5.32;;;;;;;;;;5058763;28;20406;-94
2021/08/12 01:48:26;;;;;;;6.33;5.33;;;;;;;;;;5064430;28;20400;-94
2021/08/12 01:50:55;;;;;;;5.95;5.30;;;;;;;;;;5055999;28;20422;-95
2021/08/12 01:53:24;;;;;;;9.30;5.50;;;;;;;;;;5051692;28;20396;-94
2021/08/12 01:55:52;;;;;;;7.15;5.43;;;;;;;;;;5047909;28;20423;-95
2021/08/12 01:58:21;;;;;;;6.10;5.35;;;;;;;;;;5056008;28;20421;-93
2021/08/12 02:00:51;;;;;;;6.53;5.68;;;;;;;;;;5048091;28;20404;-95
2021/08/12 02:03:19;;;;;;;6.68;5.68;;;;;;;;;;5047112;28;20442;-94
2021/08/12 02:05:48;;;;;;;8.45;5.47;;;;;;;;;;5047717;28;20412;-95
2021/08/12 02:08:15;;;;;;;5.82;5.22;;;;;;;;;;5047653;28;20412;-94
2021/08/12 02:10:44;;;;;;;6.32;5.40;;;;;;;;;;5047486;28;20418;-95
2021/08/12 02:13:11;;;;;;;5.80;5.20;;;;;;;;;;5047640;28;20412;-94
2021/08/12 02:15:38;;;;;;;6.75;5.35;;;;;;;;;;5047255;28;20402;-93
2021/08/12 02:18:06;;;;;;;8.35;5.70;;;;;;;;;;5047505;28;20894;-94
2021/08/12 02:20:34;;;;;;;7.38;5.85;;;;;;;;;;5046084;28;20411;-94
2021/08/12 02:23:06;;;;;;;6.77;5.90;;;;;;;;;;5046387;28;20403;-94
2021/08/12 02:25:35;;;;;;;6.07;5.30;;;;;;;;;;5046976;28;20917;-94
2021/08/12 02:28:07;;;;;;;7.95;5.60;;;;;;;;;;5047568;28;20564;-94
2021/08/12 02:30:37;;;;;;;6.38;5.65;;;;;;;;;;5047160;28;20399;-95
2021/08/12 02:33:05;;;;;;;6.78;5.65;;;;;;;;;;5047705;28;20404;-94
2021/08/12 02:35:33;;;;;;;9.13;5.97;;;;;;;;;;5047164;28;20422;-95
2021/08/12 02:38:01;;;;;;;6.60;5.95;;;;;;;;;;5047202;28;20415;-94
2021/08/12 02:40:31;;;;;;;8.50;6.45;;;;;;;;;;5039087;28;20898;-94
2021/08/12 02:42:58;;;;;;;7.70;5.90;;;;;;;;;;5046749;28;20422;-94
2021/08/12 02:45:27;;;;;;;9.80;6.10;;;;;;;;;;5046748;28;20462;-93
2021/08/12 02:47:56;;;;;;;6.90;6.20;;;;;;;;;;5046963;28;20418;-94
2021/08/12 02:50:24;;;;;;;6.63;6.00;;;;;;;;;;5046903;28;20415;-95
2021/08/12 02:52:51;;;;;;;6.95;6.10;;;;;;;;;;5046843;28;20407;-94
2021/08/12 02:55:19;;;;;;;8.65;6.45;;;;;;;;;;5046760;28;20407;-95
2021/08/12 02:57:46;;;;;;;9.00;6.20;;;;;;;;;;5046743;28;20411;-94
2021/08/12 03:00:14;;;;;;;6.72;6.10;;;;;;;;;;5047146;28;20769;-95
2021/08/12 03:02:47;;;;;;;8.95;6.38;;;;;;;;;;5046671;28;20415;-95
2021/08/12 03:05:14;;;;;;;8.32;6.57;;;;;;;;;;5046695;28;21057;-95
2021/08/12 03:07:43;;;;;;;6.82;5.90;;;;;;;;;;5046411;28;20399;-94
2021/08/12 03:10:12;;;;;;;7.00;5.93;;;;;;;;;;5046944;28;20473;-94
2021/08/12 03:12:39;;;;;;;7.95;6.68;;;;;;;;;;5046739;28;20443;-93
2021/08/12 03:15:07;;;;;;;8.00;6.40;;;;;;;;;;5044381;28;20416;-94
2021/08/12 03:17:35;;;;;;;7.75;6.10;;;;;;;;;;5045900;28;20410;-95
2021/08/12 03:20:04;;;;;;;6.83;6.13;;;;;;;;;;5046109;28;20422;-94
2021/08/12 03:22:31;;;;;;;7.90;6.38;;;;;;;;;;5046200;28;20410;-94
2021/08/12 03:24:57;;;;;;;7.47;6.72;;;;;;;;;;5046826;28;20419;-95
2021/08/12 03:27:25;;;;;;;8.18;6.70;;;;;;;;;;5046344;28;20410;-94
2021/08/12 03:29:52;;;;;;;7.57;6.82;;;;;;;;;;5046432;28;20403;-95
2021/08/12 03:32:19;;;;;;;8.80;6.50;;;;;;;;;;5046394;28;20418;-95
2021/08/12 03:34:46;;;;;;;9.35;7.00;;;;;;;;;;5046416;28;20871;-92
2021/08/12 03:37:15;;;;;;;7.90;6.75;;;;;;;;;;5046635;28;20403;-95
2021/08/12 03:39:42;;;;;;;8.80;7.07;;;;;;;;;;5046393;28;20422;-94
2021/08/12 03:42:10;;;;;;;7.00;6.30;;;;;;;;;;5048220;28;20482;-93
2021/08/12 03:44:37;;;;;;;7.38;6.55;;;;;;;;;;5050367;28;20880;-94
2021/08/12 03:47:05;;;;;;;7.60;6.90;;;;;;;;;;5050843;28;20403;-94
2021/08/12 03:49:32;;;;;;;7.97;6.63;;;;;;;;;;5050399;28;20439;-91
2021/08/12 03:51:59;;;;;;;7.80;7.00;;;;;;;;;;5049960;28;20404;-93
2021/08/12 03:54:27;;;;;;;7.43;6.72;;;;;;;;;;5033490;28;20403;-94
2021/08/12 03:56:54;;;;;;;9.20;6.75;;;;;;;;;;5050066;28;20483;-95
2021/08/12 03:59:22;;;;;;;7.95;6.95;;;;;;;;;;5050130;28;20400;-94
2021/08/12 04:01:49;;;;;;;8.30;7.43;;;;;;;;;;5049725;28;20407;-94
2021/08/12 04:04:16;;;;;;;7.40;6.60;;;;;;;;;;5045610;28;20409;-94
2021/08/12 04:06:43;;;;;;;8.98;7.15;;;;;;;;;;5055003;28;20422;-95
2021/08/12 04:09:10;;;;;;;8.57;6.78;;;;;;;;;;5056340;28;20411;-95
2021/08/12 04:11:38;;;;;;;7.88;6.13;;;;;;;;;;5054273;28;20403;-93
2021/08/12 04:14:05;;;;;;;9.10;6.68;;;;;;;;;;5049823;28;20418;-94
2021/08/12 04:16:32;;;;;;;7.45;6.68;;;;;;;;;;5049330;28;20706;-94
2021/08/12 04:18:59;;;;;;;9.00;6.88;;;;;;;;;;5050666;28;20879;-94
2021/08/12 04:21:26;;;;;;;7.57;6.57;;;;;;;;;;5055456;28;20416;-94
2021/08/12 04:23:53;;;;;;;8.75;6.65;;;;;;;;;;5057472;28;20415;-94
2021/08/12 04:26:20;;;;;;;7.47;6.73;;;;;;;;;;5053259;28;20512;-95
2021/08/12 04:28:49;;;;;;;8.70;6.78;;;;;;;;;;5058697;28;20910;-93
2021/08/12 04:31:16;;;;;;;7.70;6.90;;;;;;;;;;5054070;28;20409;-95
2021/08/12 04:33:43;;;;;;;8.00;6.38;;;;;;;;;;5054549;28;20886;-95
2021/08/12 04:36:10;;;;;;;7.20;6.40;;;;;;;;;;5054069;28;20401;-94
2021/08/12 04:38:37;;;;;;;7.75;6.53;;;;;;;;;;5060797;28;20929;-95
2021/08/12 04:41:04;;;;;;;9.63;6.63;;;;;;;;;;5049144;28;20407;-93
2021/08/12 04:43:32;;;;;;;7.70;6.82;;;;;;;;;;5048330;28;20419;-94
2021/08/12 04:46:00;;;;;;;7.10;6.40;;;;;;;;;;5048742;28;20895;-94
2021/08/12 04:48:27;;;;;;;6.85;6.15;;;;;;;;;;5041073;28;20412;-94
2021/08/12 04:50:54;;;;;;;7.70;6.38;;;;;;;;;;5058146;28;20404;-93
2021/08/12 04:53:21;;;;;;;8.13;6.50;;;;;;;;;;5053453;28;20410;-93
2021/08/12 04:55:51;;;;;;;8.32;6.28;;;;;;;;;;5049260;28;20782;-96
2021/08/12 04:58:17;;;;;;;7.72;6.80;;;;;;;;;;5048654;28;20403;-94
2021/08/12 05:00:44;;;;;;;7.68;6.60;;;;;;;;;;5049548;28;20399;-94
2021/08/12 05:03:13;;;;;;;8.30;6.60;;;;;;;;;;5050830;28;20410;-94
2021/08/12 05:05:40;;;;;;;8.48;6.75;;;;;;;;;;5049313;28;20458;-95
2021/08/12 05:08:07;;;;;;;9.75;7.05;;;;;;;;;;5063333;28;20404;-95
2021/08/12 05:10:34;;;;;;;9.70;7.03;;;;;;;;;;5058045;28;20407;-94
2021/08/12 05:13:01;;;;;;;9.00;6.87;;;;;;;;;;5053717;28;20422;-94
2021/08/12 05:15:29;;;;;;;8.38;6.90;;;;;;;;;;5052274;28;20404;-94
2021/08/12 05:17:56;;;;;;;9.85;7.07;;;;;;;;;;5042699;28;20800;-94
2021/08/12 05:20:25;;;;;;;7.68;6.88;;;;;;;;;;5051529;28;20421;-95
2021/08/12 05:22:51;;;;;;;8.65;6.97;;;;;;;;;;5052679;28;20454;-92
2021/08/12 05:25:18;;;;;;;8.13;7.15;;;;;;;;;;5057724;28;20413;-95
2021/08/12 05:27:45;;;;;;;11.07;7.30;;;;;;;;;;5053405;28;20412;-94
2021/08/12 05:30:12;;;;;;;8.40;7.17;;;;;;;;;;5056046;28;20417;-94
2021/08/12 05:32:40;;;;;;;8.73;7.28;;;;;;;;;;5053707;28;20418;-93
2021/08/12 05:35:07;;;;;;;10.25;7.35;;;;;;;;;;5050287;28;20415;-95
2021/08/12 05:37:35;;;;;;;9.73;7.33;;;;;;;;;;5057670;28;20394;-92
2021/08/12 05:40:02;;;;;;;10.75;7.30;;;;;;;;;;5055597;28;20398;-91
2021/08/12 05:42:29;;;;;;;7.90;7.10;;;;;;;;;;5052468;28;20761;-94
2021/08/12 05:44:56;;;;;;;10.67;7.10;;;;;;;;;;5058369;28;20410;-94
2021/08/12 05:47:23;;;;;;;8.53;7.00;;;;;;;;;;5054216;28;20476;-94
2021/08/12 05:49:50;;;;;;;9.00;7.53;;;;;;;;;;5060448;28;20407;-93
2021/08/12 05:52:17;;;;;;;8.93;7.47;;;;;;;;;;5054226;28;20404;-94
2021/08/12 05:54:45;;;;;;;11.70;7.75;;;;;;;;;;5055862;28;20431;-95
2021/08/12 05:57:12;;;;;;;8.35;7.22;;;;;;;;;;5055782;28;20409;-94
2021/08/12 05:59:39;;;;;;;8.27;7.10;;;;;;;;;;5053322;28;20418;-94
2021/08/12 06:02:06;;;;;;;8.85;7.95;;;;;;;;;;5044513;28;20409;-94
2021/08/12 06:04:33;;;;;;;9.73;7.20;;;;;;;;;;5039898;28;20444;-93
2021/08/12 06:07:00;;;;;;;10.07;6.88;;;;;;;;;;5047149;28;20773;-93
2021/08/12 06:09:28;;;;;;;8.32;7.22;;;;;;;;;;5052899;28;20411;-92
2021/08/12 06:11:56;;;;;;;9.88;7.40;;;;;;;;;;5054347;28;20496;-93
2021/08/12 06:14:26;;;;;;;7.80;7.00;;;;;;;;;;5056696;28;20474;-93
2021/08/12 06:16:53;;;;;;;8.85;7.00;;;;;;;;;;5056430;28;20439;-94
2021/08/12 06:19:20;;;;;;;9.57;6.87;;;;;;;;;;5055999;28;20740;-94
2021/08/12 06:21:47;;;;;;;10.68;7.25;;;;;;;;;;5054829;28;20410;-95
2021/08/12 06:24:17;;;;;;;7.55;6.72;;;;;;;;;;5054069;28;20885;-92
2021/08/12 06:26:44;;;;;;;9.13;7.05;;;;;;;;;;5058368;28;20509;-94
2021/08/12 06:29:13;;;;;;;8.32;6.63;;;;;;;;;;5057541;28;20403;-94
2021/08/12 06:31:40;;;;;;;9.55;6.75;;;;;;;;;;5056262;28;20420;-94
2021/08/12 06:34:07;;;;;;;8.77;6.43;;;;;;;;;;5057310;28;20768;-95
2021/08/12 06:36:34;;;;;;;8.00;7.20;;;;;;;;;;5051640;28;20474;-95
2021/08/12 06:39:01;;;;;;;8.57;6.82;;;;;;;;;;5057297;28;20413;-94
2021/08/12 06:41:29;;;;;;;8.85;7.47;;;;;;;;;;5053259;28;20426;-95
2021/08/12 06:43:56;;;;;;;9.43;7.68;;;;;;;;;;5048423;28;20420;-95
2021/08/12 06:46:25;;;;;;;7.90;6.87;;;;;;;;;;5046190;28;20425;-94
2021/08/12 06:48:52;;;;;;;9.00;7.13;;;;;;;;;;5056539;28;20408;-95
2021/08/12 06:51:21;;;;;;;9.27;7.47;;;;;;;;;;5044719;28;20408;-95
2021/08/12 06:53:48;;;;;;;9.63;6.68;;;;;;;;;;5059862;28;20433;-95
2021/08/12 06:56:15;;;;;;;8.63;6.90;;;;;;;;;;5050753;28;20528;-94
2021/08/12 06:58:42;;;;;;;9.27;7.10;;;;;;;;;;5046408;28;21420;-92
2021/08/12 07:01:09;;;;;;;8.25;6.90;;;;;;;;;;5039058;28;20418;-95
2021/08/12 07:03:37;;;;;;;7.43;6.07;;;;;;;;;;5042545;28;20404;-94
2021/08/12 07:06:04;;;;;;;7.60;6.47;;;;;;;;;;5045554;28;20423;-96
2021/08/12 07:08:32;;;;;;;7.57;6.72;;;;;;;;;;5042366;28;20403;-94
2021/08/12 07:10:59;;;;;;;7.38;6.20;;;;;;;;;;5038392;28;20443;-93
2021/08/12 07:13:26;;;;;;;7.95;6.30;;;;;;;;;;5037134;28;20410;-94
2021/08/12 07:16:00;;;;;;;8.57;6.20;;;;;;;;;;5038317;28;20404;-94
2021/08/12 07:18:30;;;;;;;7.55;6.28;;;;;;;;;;5041745;28;20453;-95
2021/08/12 07:20:58;;;;;;;8.05;6.20;;;;;;;;;;5040457;28;20442;-94
2021/08/12 07:23:27;;;;;;;7.18;6.40;;;;;;;;;;5048178;28;20431;-96
2021/08/12 07:25:54;;;;;;;7.43;6.45;;;;;;;;;;5058256;28;20455;-93
2021/08/12 07:28:21;;;;;;;7.43;5.90;;;;;;;;;;5054851;28;20401;-94
2021/08/12 07:30:48;;;;;;;8.35;6.00;;;;;;;;;;5051524;28;20417;-94
2021/08/12 07:33:15;;;;;;;7.63;6.05;;;;;;;;;;5062302;28;20410;-95
2021/08/12 07:35:41;;;;;;;6.38;5.78;;;;;;;;;;5053738;28;20400;-94
2021/08/12 07:38:12;;;;;;;7.82;5.88;;;;;;;;;;5058075;28;20421;-95
2021/08/12 07:40:39;;;;;;;6.38;5.20;;;;;;;;;;5051771;28;20491;-94
2021/08/12 07:43:06;;;;;;;6.00;5.25;;;;;;;;;;5054825;28;20415;-95
2021/08/12 07:45:33;;;;;;;7.03;5.38;;;;;;;;;;5055190;28;20416;-94
2021/08/12 07:48:00;;;;;;;6.50;5.35;;;;;;;;;;5039435;28;20411;-95
2021/08/12 07:50:27;;;;;;;7.53;5.32;;;;;;;;;;5049180;28;20431;-94
2021/08/12 07:52:55;;;;;;;6.05;5.20;;;;;;;;;;5057166;28;20417;-95
2021/08/12 07:55:23;;;;;;;5.43;4.93;;;;;;;;;;5048988;28;20409;-95
2021/08/12 07:57:50;;;;;;;5.82;4.95;;;;;;;;;;5047229;28;20413;-95
2021/08/12 08:00:18;;;;;;;6.82;5.25;;;;;;;;;;5036539;28;20450;-94
2021/08/12 08:02:49;;;;;;;7.97;5.30;;;;;;;;;;5035879;28;20417;-94
2021/08/12 08:05:20;;;;;;;8.30;5.50;;;;;;;;;;5040894;28;20414;-95
2021/08/12 08:07:49;;;;;;;6.68;5.22;;;;;;;;;;5043390;28;20406;-94
2021/08/12 08:10:16;;;;;;;6.10;5.32;;;;;;;;;;5039375;28;20406;-96
2021/08/12 08:12:45;;;;;;;7.35;5.50;;;;;;;;;;5041890;28;20413;-94
2021/08/12 08:15:14;;;;;;;7.00;5.13;;;;;;;;;;5034478;28;20401;-94
2021/08/12 08:17:41;;;;;;;6.70;5.10;;;;;;;;;;5040598;28;20413;-94
2021/08/12 08:20:11;;;;;;;6.07;5.32;;;;;;;;;;5042213;28;20428;-94
2021/08/12 08:22:39;;;;;;;6.07;5.10;;;;;;;;;;5045372;28;20407;-95
2021/08/12 08:25:07;;;;;;;6.93;5.28;;;;;;;;;;5043114;28;20416;-95
2021/08/12 08:27:34;;;;;;;7.13;5.70;;;;;;;;;;5048955;28;20432;-93
2021/08/12 08:30:04;;;;;;;5.60;5.05;;;;;;;;;;5047719;28;20448;-94
2021/08/12 08:32:32;;;;;;;5.63;5.03;;;;;;;;;;5046493;28;20413;-94
2021/08/12 08:34:59;;;;;;;5.63;4.90;;;;;;;;;;5045262;28;20416;-94
2021/08/12 08:37:26;;;;;;;5.80;5.05;;;;;;;;;;5047581;28;20399;-94
2021/08/12 08:39:53;;;;;;;6.70;5.07;;;;;;;;;;5047936;28;20760;-94
2021/08/12 08:42:20;;;;;;;6.57;5.28;;;;;;;;;;5050928;28;20433;-95
2021/08/12 08:44:50;;;;;;;6.07;5.30;;;;;;;;;;5057962;28;20409;-94
2021/08/12 08:47:20;;;;;;;6.38;5.43;;;;;;;;;;5053865;28;20409;-95
2021/08/12 08:49:48;;;;;;;6.70;5.20;;;;;;;;;;5052491;28;20410;-94
2021/08/12 08:52:15;;;;;;;6.47;4.90;;;;;;;;;;5035055;28;20720;-91
2021/08/12 08:54:43;;;;;;;5.60;4.68;;;;;;;;;;5043247;28;20408;-92
2021/08/12 08:57:10;;;;;;;5.28;4.68;;;;;;;;;;5046629;28;20451;-94
2021/08/12 08:59:38;;;;;;;5.80;4.80;;;;;;;;;;5047260;28;20407;-93
2021/08/12 09:02:06;;;;;;;5.30;4.60;;;;;;;;;;5043253;28;20405;-94
2021/08/12 09:04:35;;;;;;;5.38;4.50;;;;;;;;;;5051106;28;20406;-93
2021/08/12 09:07:04;;;;;;;6.00;4.70;;;;;;;;;;5057200;28;20798;-93
2021/08/12 09:09:32;;;;;;;5.32;4.38;;;;;;;;;;5056778;28;20562;-95
2021/08/12 09:12:00;;;;;;;5.13;4.40;;;;;;;;;;5053872;28;20408;-93
2021/08/12 09:14:35;;;;;;;6.60;4.82;;;;;;;;;;5054651;28;20957;-94
2021/08/12 09:17:22;;;;;;;6.15;4.70;;;;;;;;;;5052415;28;20413;-93
2021/08/12 09:20:03;;;;;;;5.95;4.85;;;;;;;;;;5037209;28;20481;-92
2021/08/12 09:22:46;;;;;;;6.35;4.93;;;;;;;;;;5041758;28;20402;-93
2021/08/12 09:25:13;;;;;;;5.22;4.60;;;;;;;;;;5045244;28;21187;-93
2021/08/12 09:27:40;;;;;;;4.93;4.35;;;;;;;;;;5041113;28;20803;-92
2021/08/12 09:30:14;;;;;;;5.38;4.80;;;;;;;;;;5041491;28;20878;-92
2021/08/12 09:32:46;;;;;;;5.33;4.40;;;;;;;;;;5042371;28;20396;-93
2021/08/12 09:35:22;;;;;;;6.80;4.80;;;;;;;;;;5032499;28;20467;-91
2021/08/12 09:37:49;;;;;;;6.20;4.55;;;;;;;;;;5037615;28;20901;-93
2021/08/12 09:40:15;;;;;;;5.90;4.60;;;;;;;;;;5038831;28;20580;-93
2021/08/12 09:43:04;;;;;;;6.07;4.95;;;;;;;;;;5038506;28;20447;-93
2021/08/12 09:45:34;;;;;;;7.25;4.63;;;;;;;;;;5039750;28;20910;-92
2021/08/12 09:48:11;;;;;;;4.55;4.10;;;;;;;;;;5041664;28;20422;-93
2021/08/12 09:50:40;;;;;;;6.43;4.60;;;;;;;;;;5045225;28;20426;-93
2021/08/12 09:53:07;;;;;;;5.35;4.57;;;;;;;;;;5043864;28;20788;-93
2021/08/12 09:55:39;;;;;;;6.30;4.78;;;;;;;;;;5036480;28;20417;-93
2021/08/12 09:58:10;;;;;;;6.97;4.90;;;;;;;;;;5034777;28;20428;-94
2021/08/12 10:00:41;;;;;;;5.43;4.60;;;;;;;;;;5033420;28;20401;-92
2021/08/12 10:03:32;;;;;;;5.63;4.85;;;;;;;;;;5041752;28;20809;-94
2021/08/12 10:06:01;;;;;;;5.90;4.55;;;;;;;;;;5036491;28;20469;-93
2021/08/12 10:08:31;;;;;;;5.38;4.30;;;;;;;;;;5040675;28;20407;-93
2021/08/12 10:11:17;;;;;;;6.50;4.45;;;;;;;;;;5043353;28;20495;-93
2021/08/12 10:13:44;;;;;;;5.78;4.60;;;;;;;;;;5041616;28;20411;-95
2021/08/12 10:16:13;;;;;;;6.18;4.50;;;;;;;;;;5040649;28;20396;-94
2021/08/12 10:18:43;;;;;;;6.87;5.03;;;;;;;;;;5045974;28;20422;-94
2021/08/12 10:21:16;;;;;;;5.63;4.90;;;;;;;;;;5041191;28;20413;-95
2021/08/12 10:23:45;;;;;;;4.70;4.05;;;;;;;;;;5060408;22;20422;-96
2021/08/12 10:26:13;;;;;;;7.38;4.78;;;;;;;;;;5046230;28;20430;-96
2021/08/12 10:28:44;;;;;;;7.95;4.35;;;;;;;;;;5056035;28;20439;-96
2021/08/12 10:31:24;;;;;;;6.68;5.10;;;;;;;;;;5065579;28;20409;-95
2021/08/12 10:33:51;;;;;;;6.22;5.25;;;;;;;;;;5065576;28;20386;-96
2021/08/12 10:36:21;;;;;;;5.53;4.82;;;;;;;;;;5072227;28;20435;-96
2021/08/12 10:38:48;;;;;;;6.60;5.22;;;;;;;;;;5056500;28;20753;-95
2021/08/12 10:41:16;;;;;;;5.80;5.18;;;;;;;;;;5057171;28;21676;-95
2021/08/12 10:43:45;;;;;;;5.32;4.82;;;;;;;;;;5058375;28;20410;-96
2021/08/12 10:46:12;;;;;;;6.28;5.10;;;;;;;;;;5057203;28;20920;-95
2021/08/12 10:48:39;;;;;;;6.90;5.00;;;;;;;;;;5044656;28;20950;-95
2021/08/12 10:51:11;;;;;;;7.80;5.20;;;;;;;;;;5044641;28;20403;-95
2021/08/12 10:53:40;;;;;;;5.28;4.65;;;;;;;;;;5047864;28;21007;-95
2021/08/12 10:56:20;;;;;;;7.87;5.30;;;;;;;;;;5045448;28;20407;-95
2021/08/12 10:58:49;;;;;;;5.68;4.75;;;;;;;;;;5053386;28;20410;-95
2021/08/12 11:01:36;;;;;;;6.80;4.60;;;;;;;;;;5041114;28;20402;-95
2021/08/12 11:04:03;;;;;;;8.03;4.67;;;;;;;;;;5048794;28;20785;-94
2021/08/12 11:06:46;;;;;;;5.75;4.57;;;;;;;;;;5049141;28;20417;-95
2021/08/12 11:09:16;;;;;;;5.10;4.57;;;;;;;;;;5049334;28;20407;-96
2021/08/12 11:12:00;;;;;;;5.55;4.90;;;;;;;;;;5041976;28;21119;-96
2021/08/12 11:14:51;;;;;;;7.15;4.90;;;;;;;;;;5035997;28;20502;-96
2021/08/12 11:17:19;;;;;;;6.72;4.88;;;;;;;;;;5042133;28;20436;-94
2021/08/12 11:19:46;;;;;;;5.38;4.63;;;;;;;;;;5043708;28;20420;-96
2021/08/12 11:22:35;;;;;;;6.93;4.55;;;;;;;;;;5035832;28;20611;-94
2021/08/12 11:25:08;;;;;;;6.97;4.68;;;;;;;;;;5051703;28;20897;-96
2021/08/12 11:27:46;;;;;;;6.65;4.57;;;;;;;;;;5048379;28;20509;-96
2021/08/12 11:30:39;;;;;;;6.85;4.45;;;;;;;;;;5040451;28;20409;-95
2021/08/12 11:33:29;;;;;;;4.90;4.40;;;;;;;;;;5030582;28;20413;-95
2021/08/12 11:36:21;;;;;;;5.88;4.53;;;;;;;;;;5041311;28;20457;-96
2021/08/12 11:38:51;;;;;;;5.13;4.43;;;;;;;;;;5046569;28;20748;-96
2021/08/12 11:41:20;;;;;;;6.63;4.68;;;;;;;;;;5049218;28;20417;-96
2021/08/12 11:43:48;;;;;;;7.13;4.80;;;;;;;;;;5048407;28;20419;-94
2021/08/12 11:46:16;;;;;;;5.43;4.72;;;;;;;;;;5046370;28;20792;-96
2021/08/12 11:48:43;;;;;;;5.00;4.30;;;;;;;;;;5047437;28;20426;-95
2021/08/12 11:51:11;;;;;;;6.35;4.70;;;;;;;;;;5045939;28;20420;-96
2021/08/12 11:53:42;;;;;;;5.23;4.40;;;;;;;;;;5047023;28;20413;-95
2021/08/12 11:56:15;;;;;;;6.13;4.40;;;;;;;;;;5037235;28;20408;-94
2021/08/12 11:58:48;;;;;;;6.32;4.80;;;;;;;;;;5043462;28;20438;-95
2021/08/12 12:01:17;;;;;;;5.00;4.50;;;;;;;;;;5046062;28;20415;-93
2021/08/12 12:03:45;;;;;;;5.55;4.60;;;;;;;;;;5049366;28;20520;-96
2021/08/12 12:06:13;;;;;;;6.18;4.63;;;;;;;;;;5050881;28;20410;-96
2021/08/12 12:08:40;;;;;;;5.38;4.68;;;;;;;;;;5043440;28;20550;-95
2021/08/12 12:11:09;;;;;;;4.88;4.38;;;;;;;;;;5049713;28;20411;-96
2021/08/12 12:13:36;;;;;;;5.60;4.50;;;;;;;;;;5046502;28;20411;-96
2021/08/12 12:16:11;;;;;;;6.68;4.45;;;;;;;;;;5048107;28;20497;-96
2021/08/12 12:18:40;;;;;;;5.87;4.50;;;;;;;;;;5043508;28;20420;-96
2021/08/12 12:21:09;;;;;;;6.03;4.50;;;;;;;;;;5048810;28;20419;-96
2021/08/12 12:23:37;;;;;;;5.07;4.47;;;;;;;;;;5036779;28;20420;-96
2021/08/12 12:26:05;;;;;;;5.57;4.80;;;;;;;;;;5052988;28;20555;-96
2021/08/12 12:28:38;;;;;;;5.18;4.75;;;;;;;;;;5041461;28;20802;-96
2021/08/12 12:31:15;;;;;;;5.93;4.70;;;;;;;;;;5049863;28;20431;-96
2021/08/12 12:33:43;;;;;;;5.07;4.57;;;;;;;;;;5041245;28;21029;-95
2021/08/12 12:36:12;;;;;;;5.55;4.88;;;;;;;;;;5047519;28;20465;-96
2021/08/12 12:38:39;;;;;;;5.88;4.53;;;;;;;;;;5049856;28;20469;-96
2021/08/12 12:41:08;;;;;;;5.07;4.57;;;;;;;;;;5054674;28;20959;-95
2021/08/12 12:44:01;;;;;;;5.32;4.82;;;;;;;;;;5061827;28;20523;-96
2021/08/12 12:46:32;;;;;;;5.07;4.68;;;;;;;;;;5062372;28;20422;-96
2021/08/12 12:49:26;;;;;;;5.30;4.70;;;;;;;;;;5050336;28;20446;-96
2021/08/12 12:51:53;;;;;;;5.38;4.55;;;;;;;;;;5073897;28;20826;-96
2021/08/12 12:54:32;;;;;;;7.30;4.65;;;;;;;;;;5063641;28;20484;-96
2021/08/12 13:00:44;;;;;;;5.30;4.68;;;;;;;;;;5081813;28;20486;-96
2021/08/12 13:19:32;;;;;;;5.00;4.50;;;;;;;;;;4974293;28;20477;-96
2021/08/12 13:28:58;;;;;;;5.55;5.05;;;;;;;;;;4955012;28;20452;-96
2021/08/12 13:35:06;;;;;;;5.13;4.63;;;;;;;;;;5025306;28;20432;-96
2021/08/12 13:37:38;;;;;;;6.17;4.60;;;;;;;;;;5036064;28;20401;-96
2021/08/12 13:42:50;;;;;;;5.05;4.50;;;;;;;;;;5025110;28;20411;-96
2021/08/12 13:58:09;;;;;;;6.85;4.57;;;;;;;;;;5036853;28;20769;-96
2021/08/12 14:00:36;;;;;;;5.00;4.43;;;;;;;;;;5013730;28;20494;-96
2021/08/12 14:03:05;;;;;;;6.65;4.90;;;;;;;;;;5011930;28;20411;-96
2021/08/12 14:05:33;;;;;;;5.63;4.80;;;;;;;;;;5020331;28;20410;-96
2021/08/12 14:08:00;;;;;;;7.00;4.88;;;;;;;;;;5044373;28;20403;-96
2021/08/12 14:10:27;;;;;;;5.50;4.57;;;;;;;;;;5027975;28;20432;-96
2021/08/12 14:12:55;;;;;;;5.65;4.43;;;;;;;;;;5049317;28;20428;-96
2021/08/12 14:15:24;;;;;;;4.80;4.40;;;;;;;;;;5056214;28;20412;-96
2021/08/12 14:17:51;;;;;;;4.93;4.43;;;;;;;;;;5045988;28;20441;-96
2021/08/12 14:20:18;;;;;;;5.32;4.38;;;;;;;;;;5037768;28;20422;-96
2021/08/12 14:22:45;;;;;;;5.20;4.70;;;;;;;;;;5039673;28;20422;-95
2021/08/12 14:25:12;;;;;;;5.72;4.60;;;;;;;;;;5033387;28;20411;-87
2021/08/12 14:27:41;;;;;;;5.25;4.75;;;;;;;;;;5051657;28;20406;-96
2021/08/12 14:30:10;;;;;;;7.97;4.68;;;;;;;;;;5055443;28;20467;-95
2021/08/12 14:32:40;;;;;;;6.45;4.85;;;;;;;;;;5048126;28;20417;-95
2021/08/12 14:35:08;;;;;;;5.43;4.82;;;;;;;;;;5050530;28;20505;-95
2021/08/12 14:37:35;;;;;;;5.05;4.63;;;;;;;;;;5038800;28;21263;-94
2021/08/12 14:40:05;;;;;;;5.55;4.65;;;;;;;;;;5045063;28;20416;-96
2021/08/12 14:42:32;;;;;;;5.00;4.60;;;;;;;;;;5045472;28;20410;-95
2021/08/12 14:45:00;;;;;;;5.13;4.63;;;;;;;;;;5044301;28;20490;-94
2021/08/12 14:47:28;;;;;;;5.60;4.90;;;;;;;;;;5048723;28;20417;-95
2021/08/12 14:49:58;;;;;;;5.80;4.90;;;;;;;;;;5044822;28;20406;-96
2021/08/12 14:52:26;;;;;;;5.37;4.87;;;;;;;;;;5045099;28;20408;-96
2021/08/12 14:54:54;;;;;;;7.40;4.82;;;;;;;;;;5050293;28;20430;-96
2021/08/12 14:57:21;;;;;;;5.50;4.60;;;;;;;;;;5045455;28;20998;-96
2021/08/12 14:59:48;;;;;;;4.95;4.47;;;;;;;;;;5047269;28;20419;-96
2021/08/12 15:02:16;;;;;;;4.85;4.45;;;;;;;;;;5045862;28;20506;-96
2021/08/12 15:04:45;;;;;;;5.05;4.65;;;;;;;;;;5040998;28;23366;-96
2021/08/12 15:07:15;;;;;;;5.03;4.53;;;;;;;;;;5056127;28;20406;-96
2021/08/12 15:09:42;;;;;;;5.03;4.50;;;;;;;;;;5045676;28;20427;-96
2021/08/12 15:12:13;;;;;;;5.00;4.30;;;;;;;;;;5048835;28;20422;-96
2021/08/12 15:14:40;;;;;;;5.57;4.37;;;;;;;;;;5048649;28;20421;-96
2021/08/12 15:17:07;;;;;;;5.03;4.60;;;;;;;;;;5052679;28;20417;-95
2021/08/12 15:19:35;;;;;;;5.15;4.65;;;;;;;;;;5028536;28;20930;-95
2021/08/12 15:22:03;;;;;;;5.30;4.82;;;;;;;;;;5054286;28;20411;-96
2021/08/12 15:24:32;;;;;;;5.70;4.60;;;;;;;;;;5046352;28;20408;-96
2021/08/12 15:27:00;;;;;;;5.75;5.10;;;;;;;;;;5054365;28;20414;-95
2021/08/12 15:29:27;;;;;;;7.00;4.43;;;;;;;;;;5047930;28;20429;-96
2021/08/12 15:31:54;;;;;;;5.32;4.43;;;;;;;;;;5045062;28;20462;-95
2021/08/12 15:34:21;;;;;;;5.90;4.30;;;;;;;;;;5045729;28;20420;-96
2021/08/12 15:36:48;;;;;;;5.07;4.57;;;;;;;;;;5039251;28;20410;-95
2021/08/12 15:39:15;;;;;;;5.93;4.60;;;;;;;;;;5041840;28;20406;-96
2021/08/12 15:41:46;;;;;;;5.68;4.43;;;;;;;;;;5042803;28;20411;-95